Time;durP1;ratioP1;P1;durP2;ratioP2;P2;SDS_P1;SDS_P2;PMS_P1;PMS_P2;Temp;Humidity;BMP_temperature;BMP_pressure;BME280_temperature;BME280_humidity;BME280_pressure;Samples;Min_cycle;Max_cycle;Signal;HPM_P1;HPM_P2
2021/10/27 00:00:27;;;;;;;11.32;4.38;;;14.30;88.90;;;;;;5070790;28;20020;-75
2021/10/27 00:02:52;;;;;;;8.73;4.13;;;14.30;88.90;;;;;;5071037;28;20115;-74
2021/10/27 00:05:18;;;;;;;8.93;4.35;;;14.30;88.90;;;;;;5071064;28;20028;-75
2021/10/27 00:07:44;;;;;;;8.70;3.90;;;14.30;88.90;;;;;;5071274;28;20028;-74
2021/10/27 00:10:10;;;;;;;10.25;4.40;;;14.30;89.60;;;;;;5072102;28;20028;-75
2021/10/27 00:12:37;;;;;;;8.60;4.13;;;14.30;88.90;;;;;;5071079;28;20028;-75
2021/10/27 00:15:05;;;;;;;7.93;4.20;;;14.30;88.90;;;;;;5071021;28;20466;-75
2021/10/27 00:17:31;;;;;;;10.10;4.18;;;14.30;89.00;;;;;;5070990;28;20021;-75
2021/10/27 00:19:56;;;;;;;8.77;4.15;;;14.30;89.10;;;;;;5071808;28;20441;-74
2021/10/27 00:22:22;;;;;;;7.72;4.35;;;14.30;89.10;;;;;;5072255;28;20039;-75
2021/10/27 00:24:47;;;;;;;8.73;4.35;;;14.30;89.10;;;;;;5072262;28;20551;-75
2021/10/27 00:27:13;;;;;;;10.98;4.80;;;14.30;89.10;;;;;;5072205;28;20025;-74
2021/10/27 00:29:39;;;;;;;10.60;4.90;;;14.30;89.20;;;;;;5070525;28;20056;-75
2021/10/27 00:32:06;;;;;;;13.23;5.47;;;14.30;89.40;;;;;;5071853;28;20028;-75
2021/10/27 00:34:32;;;;;;;9.85;5.15;;;14.30;89.30;;;;;;5071196;28;20453;-74
2021/10/27 00:36:58;;;;;;;10.43;5.32;;;14.30;89.50;;;;;;5070958;28;20017;-75
2021/10/27 00:39:23;;;;;;;12.23;5.50;;;14.30;89.50;;;;;;5071767;28;20108;-76
2021/10/27 00:41:49;;;;;;;13.45;5.40;;;14.30;89.50;;;;;;5070741;28;20032;-76
2021/10/27 00:44:25;;;;;;;12.05;6.13;;;14.30;89.60;;;;;;5072061;28;20382;-75
2021/10/27 00:47:04;;;;;;;11.48;6.00;;;14.30;89.70;;;;;;5070695;28;20086;-75
2021/10/27 00:49:32;;;;;;;9.10;5.43;;;14.30;89.80;;;;;;5071561;28;20021;-75
2021/10/27 00:51:59;;;;;;;11.43;6.03;;;14.30;89.90;;;;;;5071796;28;20020;-76
2021/10/27 00:54:25;;;;;;;12.40;6.07;;;14.30;89.90;;;;;;5070566;28;20025;-75
2021/10/27 00:56:56;;;;;;;13.07;6.40;;;14.30;89.80;;;;;;5071903;28;20481;-75
2021/10/27 00:59:25;;;;;;;11.35;6.55;;;14.40;89.90;;;;;;5070286;28;20032;-75
2021/10/27 01:01:56;;;;;;;11.23;6.47;;;14.40;89.60;;;;;;5070638;28;20035;-77
2021/10/27 01:04:22;;;;;;;14.02;6.55;;;14.40;89.70;;;;;;5071897;28;20497;-75
2021/10/27 01:06:49;;;;;;;13.32;6.55;;;14.40;89.60;;;;;;5071860;28;20508;-76
2021/10/27 01:09:15;;;;;;;11.73;6.95;;;14.40;89.50;;;;;;5071461;28;20021;-75
2021/10/27 01:11:40;;;;;;;12.48;7.30;;;14.40;89.60;;;;;;5071491;28;20021;-75
2021/10/27 01:14:07;;;;;;;12.55;7.05;;;14.40;90.00;;;;;;5071899;28;20035;-76
2021/10/27 01:16:33;;;;;;;13.10;6.97;;;14.50;89.60;;;;;;5071650;28;20032;-76
2021/10/27 01:18:59;;;;;;;13.95;7.28;;;14.40;89.50;;;;;;5072950;28;20020;-76
2021/10/27 01:21:26;;;;;;;11.18;6.75;;;14.40;89.50;;;;;;5074017;28;20028;-76
2021/10/27 01:23:53;;;;;;;13.77;8.25;;;14.50;89.60;;;;;;5074106;28;20115;-75
2021/10/27 01:26:19;;;;;;;12.07;7.43;;;14.40;89.60;;;;;;5073977;28;20029;-75
2021/10/27 01:28:44;;;;;;;13.63;7.53;;;14.40;89.90;;;;;;5075057;28;20054;-76
2021/10/27 01:31:12;;;;;;;12.27;7.40;;;14.40;90.00;;;;;;5074985;28;20417;-75
2021/10/27 01:33:39;;;;;;;11.25;7.47;;;14.40;90.00;;;;;;5073948;28;20027;-75
2021/10/27 01:36:05;;;;;;;12.50;8.15;;;14.40;90.10;;;;;;5073970;28;20567;-75
2021/10/27 01:38:32;;;;;;;12.30;8.23;;;14.30;90.10;;;;;;5074872;28;20021;-75
2021/10/27 01:40:58;;;;;;;11.63;8.10;;;14.30;90.20;;;;;;5082185;22;20045;-78
2021/10/27 01:43:23;;;;;;;12.77;8.00;;;14.30;90.20;;;;;;5034886;28;20025;-77
2021/10/27 01:45:49;;;;;;;16.02;8.52;;;14.30;90.30;;;;;;5033737;28;20514;-76
2021/10/27 01:48:15;;;;;;;12.88;8.15;;;14.30;90.40;;;;;;5035103;28;20026;-77
2021/10/27 01:50:42;;;;;;;17.13;9.30;;;14.30;90.40;;;;;;5038805;28;20079;-76
2021/10/27 01:53:07;;;;;;;13.57;8.75;;;14.30;90.50;;;;;;5053804;28;20023;-77
2021/10/27 01:55:33;;;;;;;12.20;8.38;;;14.30;90.40;;;;;;5053810;28;20025;-78
2021/10/27 01:57:59;;;;;;;15.50;8.55;;;14.30;90.40;;;;;;5053566;28;20109;-78
2021/10/27 02:00:24;;;;;;;14.05;9.05;;;14.30;90.50;;;;;;5054577;28;20398;-77
2021/10/27 02:02:50;;;;;;;13.00;8.55;;;14.30;90.60;;;;;;5053626;28;20028;-76
2021/10/27 02:05:15;;;;;;;12.75;8.35;;;14.30;90.50;;;;;;5054790;28;20033;-77
2021/10/27 02:07:41;;;;;;;14.27;8.98;;;14.30;90.60;;;;;;5053644;28;20035;-77
2021/10/27 02:10:09;;;;;;;15.25;8.68;;;14.20;90.50;;;;;;5053211;28;20067;-77
2021/10/27 02:12:36;;;;;;;12.95;9.02;;;14.30;90.50;;;;;;5053327;28;20513;-77
2021/10/27 02:15:02;;;;;;;12.32;8.48;;;14.20;90.50;;;;;;5053346;28;20111;-76
2021/10/27 02:17:28;;;;;;;13.10;8.93;;;14.30;90.60;;;;;;5054489;28;20482;-77
2021/10/27 02:19:53;;;;;;;14.70;8.95;;;14.30;90.60;;;;;;5053097;28;20045;-77
2021/10/27 02:22:19;;;;;;;14.80;9.13;;;14.30;90.70;;;;;;5054444;28;20024;-77
2021/10/27 02:24:44;;;;;;;12.60;8.38;;;14.30;90.70;;;;;;5053308;28;20115;-77
2021/10/27 02:27:10;;;;;;;12.05;8.43;;;14.30;90.80;;;;;;5053320;28;20029;-77
2021/10/27 02:29:36;;;;;;;12.40;8.73;;;14.30;90.70;;;;;;5052788;28;20079;-77
2021/10/27 02:32:02;;;;;;;13.52;8.57;;;14.30;90.70;;;;;;5053052;28;20552;-77
2021/10/27 02:34:28;;;;;;;15.18;9.48;;;14.30;90.90;;;;;;5054274;28;20017;-78
2021/10/27 02:36:54;;;;;;;13.77;9.35;;;14.30;90.80;;;;;;5054232;28;20021;-76
2021/10/27 02:39:19;;;;;;;12.95;9.10;;;14.30;90.90;;;;;;5052678;28;20029;-77
2021/10/27 02:41:45;;;;;;;13.57;8.95;;;14.20;90.90;;;;;;5052648;28;20040;-77
2021/10/27 02:44:11;;;;;;;15.48;9.32;;;14.20;90.90;;;;;;5052919;28;20052;-77
2021/10/27 02:46:36;;;;;;;15.80;9.93;;;14.30;91.20;;;;;;5052810;28;20020;-77
2021/10/27 02:49:02;;;;;;;13.57;9.60;;;14.30;91.00;;;;;;5052491;28;20490;-78
2021/10/27 02:51:28;;;;;;;13.82;9.63;;;14.30;91.00;;;;;;5046026;28;20112;-78
2021/10/27 02:53:53;;;;;;;14.38;10.43;;;14.30;91.20;;;;;;5043802;28;20029;-78
2021/10/27 02:56:19;;;;;;;14.30;9.77;;;14.20;91.20;;;;;;5049359;28;20108;-77
2021/10/27 02:58:44;;;;;;;15.25;9.73;;;14.20;91.00;;;;;;5049133;28;20115;-77
2021/10/27 03:01:10;;;;;;;13.75;9.55;;;14.30;91.10;;;;;;5032673;28;20084;-77
2021/10/27 03:03:35;;;;;;;14.23;10.15;;;14.30;91.20;;;;;;5032691;28;20028;-78
2021/10/27 03:06:01;;;;;;;15.30;10.68;;;14.20;91.10;;;;;;5049271;28;20076;-78
2021/10/27 03:08:27;;;;;;;15.35;10.70;;;14.30;91.10;;;;;;5033506;28;20025;-77
2021/10/27 03:10:53;;;;;;;16.50;10.73;;;14.30;91.20;;;;;;5049030;28;20017;-77
2021/10/27 03:13:18;;;;;;;14.10;9.93;;;14.20;91.10;;;;;;5049125;28;20022;-77
2021/10/27 03:15:44;;;;;;;15.73;10.15;;;14.30;91.20;;;;;;5033463;28;20025;-77
2021/10/27 03:18:09;;;;;;;14.90;10.80;;;14.30;91.20;;;;;;5048865;28;20471;-76
2021/10/27 03:20:35;;;;;;;13.20;10.27;;;14.30;91.20;;;;;;5048575;28;20034;-77
2021/10/27 03:23:01;;;;;;;15.82;10.43;;;14.20;91.20;;;;;;5048906;28;20493;-77
2021/10/27 03:25:27;;;;;;;19.08;10.65;;;14.30;91.20;;;;;;5033396;28;20018;-78
2021/10/27 03:27:52;;;;;;;17.65;11.00;;;14.20;91.40;;;;;;5032141;28;20026;-78
2021/10/27 03:30:18;;;;;;;15.68;10.93;;;14.20;91.30;;;;;;5031878;28;20030;-78
2021/10/27 03:32:44;;;;;;;15.90;10.73;;;14.30;91.30;;;;;;5031975;28;20437;-77
2021/10/27 03:35:10;;;;;;;15.95;10.23;;;14.30;91.30;;;;;;5048620;28;20024;-77
2021/10/27 03:37:35;;;;;;;16.02;10.50;;;14.30;91.20;;;;;;5033168;28;20033;-78
2021/10/27 03:40:02;;;;;;;16.52;10.60;;;14.40;91.10;;;;;;5032513;28;20018;-78
2021/10/27 03:42:28;;;;;;;16.77;10.43;;;14.30;91.10;;;;;;5048168;28;20482;-76
2021/10/27 03:44:53;;;;;;;16.77;10.52;;;14.40;91.10;;;;;;5048232;28;20116;-78
2021/10/27 03:47:19;;;;;;;13.05;10.35;;;14.40;91.10;;;;;;5033042;28;20061;-78
2021/10/27 03:49:45;;;;;;;14.35;9.38;;;14.40;91.10;;;;;;5032817;28;20029;-78
2021/10/27 03:52:10;;;;;;;16.10;10.55;;;14.40;91.10;;;;;;5030453;28;20033;-76
2021/10/27 03:54:36;;;;;;;15.82;10.40;;;14.40;91.10;;;;;;5045257;28;20047;-77
2021/10/27 03:57:02;;;;;;;14.43;10.32;;;14.40;91.10;;;;;;5037957;28;20021;-78
2021/10/27 03:59:28;;;;;;;15.55;10.18;;;14.40;91.00;;;;;;5049230;28;20098;-76
2021/10/27 04:01:54;;;;;;;14.90;10.05;;;14.50;91.00;;;;;;5043142;28;20122;-77
2021/10/27 04:04:19;;;;;;;13.43;10.38;;;14.40;91.10;;;;;;5029539;28;20029;-77
2021/10/27 04:06:45;;;;;;;15.10;10.00;;;14.40;91.10;;;;;;5027771;28;20088;-78
2021/10/27 04:09:10;;;;;;;14.75;10.32;;;14.40;91.20;;;;;;5029073;28;20029;-78
2021/10/27 04:11:36;;;;;;;14.40;10.05;;;14.40;91.20;;;;;;5027701;28;20025;-77
2021/10/27 04:14:01;;;;;;;14.93;10.50;;;14.40;91.30;;;;;;5032080;28;20024;-77
2021/10/27 04:16:27;;;;;;;14.10;9.93;;;14.30;91.40;;;;;;5047824;28;20655;-78
2021/10/27 04:18:52;;;;;;;13.52;10.15;;;14.30;91.50;;;;;;5048314;28;20017;-76
2021/10/27 04:21:18;;;;;;;13.68;10.35;;;14.30;91.60;;;;;;5049780;28;20076;-79
2021/10/27 04:23:43;;;;;;;12.18;9.75;;;14.30;91.60;;;;;;5051986;28;20546;-79
2021/10/27 04:26:09;;;;;;;13.68;10.15;;;14.30;91.60;;;;;;5052226;28;20049;-78
2021/10/27 04:28:34;;;;;;;14.77;10.77;;;14.30;91.70;;;;;;5051565;28;20112;-79
2021/10/27 04:31:02;;;;;;;16.20;10.82;;;14.30;91.70;;;;;;5051981;28;20128;-79
2021/10/27 04:33:28;;;;;;;13.48;10.57;;;14.30;91.80;;;;;;5052465;28;20017;-80
2021/10/27 04:35:53;;;;;;;14.70;10.70;;;14.30;91.70;;;;;;5052059;28;20024;-79
2021/10/27 04:38:21;;;;;;;17.08;11.35;;;14.30;91.60;;;;;;5053740;28;20152;-77
2021/10/27 04:40:47;;;;;;;13.13;9.80;;;14.30;91.80;;;;;;5053053;28;20527;-78
2021/10/27 04:43:13;;;;;;;15.68;11.10;;;14.30;91.80;;;;;;5051832;28;20071;-78
2021/10/27 04:45:39;;;;;;;14.43;10.38;;;14.30;91.80;;;;;;5050342;28;20023;-79
2021/10/27 04:48:06;;;;;;;13.95;10.02;;;14.30;91.80;;;;;;5052070;28;20053;-78
2021/10/27 04:50:32;;;;;;;13.73;10.18;;;14.20;91.80;;;;;;5052146;28;20021;-78
2021/10/27 04:52:57;;;;;;;13.15;10.00;;;14.30;91.80;;;;;;5046126;28;20033;-77
2021/10/27 04:55:23;;;;;;;14.57;10.50;;;14.30;92.00;;;;;;5051236;28;20021;-79
2021/10/27 04:57:48;;;;;;;14.75;10.63;;;14.30;91.90;;;;;;5054215;28;20070;-78
2021/10/27 05:00:15;;;;;;;14.13;10.57;;;14.30;92.00;;;;;;5054831;28;20013;-78
2021/10/27 05:02:40;;;;;;;12.10;10.20;;;14.30;91.90;;;;;;5054758;28;20029;-78
2021/10/27 05:05:06;;;;;;;12.77;9.80;;;14.30;91.90;;;;;;5053866;28;20462;-76
2021/10/27 05:07:33;;;;;;;15.90;10.63;;;14.20;91.90;;;;;;5054642;28;20021;-78
2021/10/27 05:09:59;;;;;;;12.35;9.38;;;14.30;91.90;;;;;;5054552;28;20020;-78
2021/10/27 05:12:25;;;;;;;13.75;10.25;;;14.30;91.90;;;;;;5054532;28;20025;-79
2021/10/27 05:14:51;;;;;;;17.23;10.65;;;14.20;92.00;;;;;;5054587;28;20017;-78
2021/10/27 05:17:17;;;;;;;16.10;10.07;;;14.30;92.00;;;;;;5055779;28;20066;-78
2021/10/27 05:19:44;;;;;;;14.23;10.88;;;14.40;91.90;;;;;;5055633;28;20103;-78
2021/10/27 05:22:11;;;;;;;14.95;10.23;;;14.20;91.90;;;;;;5054533;28;20025;-77
2021/10/27 05:24:38;;;;;;;14.15;10.38;;;14.30;91.90;;;;;;5054528;28;20021;-78
2021/10/27 05:27:04;;;;;;;14.43;10.40;;;14.30;92.00;;;;;;5054469;28;20060;-78
2021/10/27 05:29:30;;;;;;;16.70;11.02;;;14.20;92.00;;;;;;5054341;28;20025;-78
2021/10/27 05:31:56;;;;;;;13.38;10.63;;;14.20;92.00;;;;;;5054366;28;20503;-77
2021/10/27 05:34:22;;;;;;;12.95;10.13;;;14.20;92.20;;;;;;5055579;28;20028;-80
2021/10/27 05:36:48;;;;;;;14.20;10.63;;;14.20;92.00;;;;;;5054301;28;20017;-79
2021/10/27 05:39:14;;;;;;;13.95;10.23;;;14.20;92.10;;;;;;5054027;28;20048;-78
2021/10/27 05:41:45;;;;;;;14.68;10.73;;;14.30;92.20;;;;;;5055265;28;20471;-78
2021/10/27 05:44:11;;;;;;;15.55;10.73;;;14.30;92.30;;;;;;5053622;28;20112;-78
2021/10/27 05:46:37;;;;;;;13.73;10.82;;;14.30;92.40;;;;;;5052477;28;20028;-78
2021/10/27 05:49:10;;;;;;;12.98;10.77;;;14.30;92.30;;;;;;5053151;28;20024;-78
2021/10/27 05:51:40;;;;;;;13.73;10.68;;;14.30;92.20;;;;;;5053343;28;20040;-77
2021/10/27 05:56:50;;;;;;;13.48;10.85;;;14.30;92.30;;;;;;5054770;28;20055;-78
2021/10/27 05:59:16;;;;;;;14.43;11.15;;;14.30;92.20;;;;;;5053173;28;20343;-77
2021/10/27 06:01:42;;;;;;;14.40;10.93;;;14.20;92.20;;;;;;5053482;28;20497;-78
2021/10/27 06:04:08;;;;;;;13.90;10.60;;;14.30;92.20;;;;;;5052782;28;20033;-77
2021/10/27 06:06:34;;;;;;;13.90;10.65;;;14.30;92.30;;;;;;5053228;28;20025;-77
2021/10/27 06:09:00;;;;;;;12.30;10.20;;;14.30;92.30;;;;;;5052797;28;20128;-78
2021/10/27 06:11:25;;;;;;;15.73;10.75;;;14.30;92.20;;;;;;5052944;28;20084;-78
2021/10/27 06:13:51;;;;;;;17.70;10.68;;;14.30;92.30;;;;;;5052923;28;20055;-77
2021/10/27 06:16:17;;;;;;;12.95;10.52;;;14.30;92.20;;;;;;5053022;28;20040;-78
2021/10/27 06:18:43;;;;;;;13.57;10.48;;;14.30;92.20;;;;;;5052653;28;20071;-78
2021/10/27 06:21:11;;;;;;;13.80;10.65;;;14.30;92.20;;;;;;5052903;28;20029;-78
2021/10/27 06:23:39;;;;;;;14.90;10.35;;;14.30;92.10;;;;;;5052748;28;20115;-78
2021/10/27 06:26:05;;;;;;;12.13;9.85;;;14.30;92.00;;;;;;5052751;28;20028;-78
2021/10/27 06:28:33;;;;;;;13.65;10.57;;;14.40;91.90;;;;;;5052380;28;20025;-78
2021/10/27 06:31:12;;;;;;;13.38;10.25;;;14.40;91.80;;;;;;5052646;28;20025;-78
2021/10/27 06:34:04;;;;;;;12.90;9.98;;;14.40;91.80;;;;;;5052770;28;20471;-78
2021/10/27 06:36:39;;;;;;;13.30;9.80;;;14.40;91.80;;;;;;5052809;28;20051;-77
2021/10/27 06:47:16;;;;;;;13.93;10.23;;;14.40;91.70;;;;;;5053805;28;20099;-78
2021/10/27 06:49:42;;;;;;;12.32;9.65;;;14.40;91.60;;;;;;5052023;28;20029;-77
2021/10/27 06:52:08;;;;;;;12.25;9.40;;;14.40;91.70;;;;;;5052163;28;20389;-77
2021/10/27 06:54:33;;;;;;;12.15;9.40;;;14.40;91.70;;;;;;5052131;28;20070;-78
2021/10/27 06:56:59;;;;;;;13.55;9.40;;;14.40;91.70;;;;;;5052251;28;20021;-78
2021/10/27 07:15:31;;;;;;;13.02;8.98;;;14.30;92.10;;;;;;5052608;28;20106;-77
2021/10/27 07:17:57;;;;;;;14.15;8.80;;;14.30;92.10;;;;;;5051691;28;20023;-78
2021/10/27 07:20:26;;;;;;;12.85;9.00;;;14.20;92.10;;;;;;5045897;28;20026;-77
2021/10/27 07:22:53;;;;;;;13.80;8.80;;;14.30;92.10;;;;;;5048013;28;20037;-77
2021/10/27 07:25:19;;;;;;;12.30;8.43;;;14.30;92.20;;;;;;5047322;28;20052;-77
2021/10/27 07:27:46;;;;;;;11.85;8.25;;;14.30;92.10;;;;;;5048374;28;20558;-77
2021/10/27 07:30:13;;;;;;;12.65;8.70;;;14.30;92.20;;;;;;5047928;28;20102;-76
2021/10/27 07:32:39;;;;;;;11.73;8.23;;;14.30;92.20;;;;;;5048210;28;20545;-78
2021/10/27 07:43:00;;;;;;;12.85;7.90;;;14.30;92.20;;;;;;5105051;22;20072;-75
2021/10/27 07:45:26;;;;;;;11.93;7.72;;;14.30;92.20;;;;;;5051395;28;20048;-76
2021/10/27 07:47:55;;;;;;;13.43;7.35;;;14.30;92.20;;;;;;5051274;28;20549;-76
2021/10/27 07:50:25;;;;;;;10.27;7.15;;;14.20;92.10;;;;;;5050829;28;20045;-76
2021/10/27 07:52:52;;;;;;;10.85;7.03;;;14.30;92.10;;;;;;5050993;28;20056;-76
2021/10/27 07:55:18;;;;;;;10.88;7.93;;;14.30;92.20;;;;;;5051023;28;20045;-75
2021/10/27 07:57:45;;;;;;;11.40;7.32;;;14.30;92.10;;;;;;5050892;28;20021;-75
2021/10/27 08:00:12;;;;;;;11.23;6.75;;;14.20;92.10;;;;;;5050817;28;20021;-77
2021/10/27 08:02:39;;;;;;;11.20;7.18;;;14.30;92.10;;;;;;5050934;28;20025;-76
2021/10/27 08:05:05;;;;;;;12.90;6.60;;;14.30;92.20;;;;;;5050943;28;20028;-76
2021/10/27 08:07:31;;;;;;;11.02;7.05;;;14.30;92.10;;;;;;5050943;28;20512;-75
2021/10/27 08:09:56;;;;;;;9.63;6.50;;;14.30;92.10;;;;;;5050456;28;20029;-76
2021/10/27 08:12:22;;;;;;;10.70;6.35;;;14.30;92.20;;;;;;5050523;28;20104;-76
2021/10/27 08:14:48;;;;;;;11.80;6.43;;;14.30;92.20;;;;;;5050863;28;20486;-76
2021/10/27 08:17:13;;;;;;;10.25;6.40;;;14.30;92.20;;;;;;5050823;28;20023;-77
2021/10/27 08:19:39;;;;;;;11.63;6.32;;;14.30;92.20;;;;;;5050468;28;20029;-76
2021/10/27 08:22:07;;;;;;;11.10;6.30;;;14.30;92.20;;;;;;5050640;28;20071;-75
2021/10/27 08:24:33;;;;;;;9.45;5.97;;;14.30;92.20;;;;;;5050569;28;20508;-75
2021/10/27 08:27:06;;;;;;;11.45;6.07;;;14.30;92.10;;;;;;5050501;28;20033;-76
2021/10/27 08:29:37;;;;;;;12.43;6.47;;;14.30;92.20;;;;;;5050405;28;20075;-76
2021/10/27 08:32:14;;;;;;;11.60;6.25;;;14.30;92.10;;;;;;5050405;28;20025;-76
2021/10/27 08:34:46;;;;;;;8.88;5.55;;;14.30;92.20;;;;;;5050600;28;20025;-76
2021/10/27 08:37:12;;;;;;;;;;;14.30;92.20;;;;;;5051246;28;20025;-76
2021/10/27 08:39:37;;;;;;;10.00;5.88;;;14.30;92.10;;;;;;5050161;28;19905;-76
2021/10/27 08:42:03;;;;;;;10.70;5.88;;;14.30;92.00;;;;;;5050337;28;20078;-76
2021/10/27 08:44:29;;;;;;;8.60;5.18;;;14.30;92.10;;;;;;5050544;28;20379;-76
2021/10/27 08:46:57;;;;;;;11.80;5.65;;;14.30;92.10;;;;;;5050399;28;20028;-75
2021/10/27 08:49:27;;;;;;;9.02;5.20;;;14.40;92.00;;;;;;5049979;28;20090;-76
2021/10/27 08:51:56;;;;;;;10.15;5.32;;;14.40;92.10;;;;;;5050183;28;20063;-75
2021/10/27 08:54:22;;;;;;;9.82;5.20;;;14.40;92.20;;;;;;5050267;28;20036;-76
2021/10/27 08:56:49;;;;;;;10.73;5.35;;;14.30;92.10;;;;;;5050398;28;20025;-75
2021/10/27 08:59:21;;;;;;;8.60;4.80;;;14.40;92.00;;;;;;5050008;28;20021;-76
2021/10/27 09:02:01;;;;;;;8.93;4.93;;;14.40;92.00;;;;;;5050199;28;20029;-76
2021/10/27 09:04:37;;;;;;;11.45;5.10;;;14.40;91.90;;;;;;5050404;28;20029;-76
2021/10/27 10:06:17;;;;;;;8.40;4.05;;;14.40;91.90;;;;;;5054629;28;20509;-76
2021/10/27 10:08:44;;;;;;;7.78;3.67;;;14.40;91.80;;;;;;5052809;28;20033;-75
2021/10/27 10:11:11;;;;;;;6.82;3.47;;;14.30;91.70;;;;;;5052928;28;20029;-76
2021/10/27 10:13:38;;;;;;;9.23;4.05;;;14.40;91.80;;;;;;5052963;28;20024;-75
2021/10/27 10:16:05;;;;;;;7.15;3.83;;;14.40;91.80;;;;;;5053053;28;20021;-76
2021/10/27 10:18:31;;;;;;;8.05;3.60;;;14.40;91.80;;;;;;5052567;28;20025;-75
2021/10/27 10:20:59;;;;;;;9.98;4.13;;;14.30;91.80;;;;;;5052719;28;20141;-76
2021/10/27 10:23:26;;;;;;;9.60;3.80;;;14.40;91.80;;;;;;5052797;28;20501;-75
2021/10/27 10:25:54;;;;;;;7.22;3.58;;;14.40;91.80;;;;;;5052798;28;20029;-76
2021/10/27 10:28:27;;;;;;;7.57;3.78;;;14.40;91.80;;;;;;5052641;28;20052;-75
2021/10/27 10:31:01;;;;;;;8.15;4.03;;;14.40;91.80;;;;;;5052573;28;20021;-76
2021/10/27 10:33:44;;;;;;;7.80;3.78;;;14.50;91.70;;;;;;5052576;28;20451;-76
2021/10/27 10:36:20;;;;;;;6.88;3.70;;;14.40;91.70;;;;;;5052613;28;20021;-75
2021/10/27 10:41:44;;;;;;;7.57;3.63;;;14.50;91.60;;;;;;5053827;28;20043;-75
2021/10/27 10:58:12;;;;;;;7.70;3.53;;;14.60;91.40;;;;;;5053618;28;20509;-75
2021/10/27 11:01:01;;;;;;;7.35;3.03;;;14.60;91.40;;;;;;5052037;28;20047;-76
2021/10/27 11:03:48;;;;;;;8.07;3.22;;;14.60;91.30;;;;;;5052147;28;20094;-75
2021/10/27 11:37:55;;;;;;;5.78;2.92;;;14.60;91.30;;;;;;5053159;28;20485;-75
2021/10/27 11:40:32;;;;;;;;;;;14.60;91.30;;;;;;5051703;28;20025;-76
2021/10/27 11:48:02;;;;;;;6.90;2.90;;;14.70;91.10;;;;;;5052724;28;20056;-76
2021/10/27 11:50:40;;;;;;;6.22;2.70;;;14.70;91.10;;;;;;5050876;28;20031;-76
2021/10/27 11:53:18;;;;;;;6.72;2.90;;;14.70;91.00;;;;;;5050851;28;20047;-76
2021/10/27 11:55:44;;;;;;;7.93;2.97;;;14.80;91.20;;;;;;5051024;28;20021;-76
2021/10/27 11:58:09;;;;;;;6.88;3.10;;;14.70;91.10;;;;;;5051166;28;20032;-76
2021/10/27 12:00:50;;;;;;;7.03;2.83;;;14.70;91.10;;;;;;5050724;28;20078;-75
2021/10/27 12:03:22;;;;;;;6.68;2.72;;;14.70;91.10;;;;;;5050663;28;20107;-76
2021/10/27 12:13:43;;;;;;;5.38;2.75;;;14.80;91.00;;;;;;5052160;28;20099;-76
2021/10/27 12:19:19;;;;;;;7.50;2.78;;;14.80;91.10;;;;;;5051910;28;20025;-76
2021/10/27 12:21:53;;;;;;;6.68;2.85;;;14.70;91.10;;;;;;5044998;28;20029;-77
2021/10/27 12:24:23;;;;;;;6.25;3.08;;;14.70;91.10;;;;;;5050680;28;20083;-76
2021/10/27 12:27:06;;;;;;;6.30;2.70;;;14.70;91.20;;;;;;5050608;28;20029;-77
2021/10/27 12:29:35;;;;;;;6.10;2.72;;;14.70;91.20;;;;;;5050288;28;20406;-76
2021/10/27 12:32:09;;;;;;;7.65;2.70;;;14.80;91.20;;;;;;5050434;28;20025;-76
2021/10/27 12:34:49;;;;;;;7.15;2.70;;;14.70;91.20;;;;;;5050611;28;20021;-76
2021/10/27 12:37:43;;;;;;;6.22;2.72;;;14.80;91.10;;;;;;5050531;28;20021;-76
2021/10/27 12:40:37;;;;;;;5.57;2.65;;;14.80;91.10;;;;;;5050369;28;20052;-76
2021/10/27 12:43:07;;;;;;;6.05;2.70;;;14.70;91.10;;;;;;5050310;28;20036;-76
2021/10/27 12:45:51;;;;;;;5.43;2.45;;;14.70;91.00;;;;;;5050437;28;20120;-77
2021/10/27 12:48:20;;;;;;;6.53;2.80;;;14.80;91.00;;;;;;5050300;28;20064;-75
2021/10/27 12:51:09;;;;;;;5.80;2.60;;;14.70;91.20;;;;;;5050340;28;20025;-76
2021/10/27 12:53:47;;;;;;;6.30;2.53;;;14.80;90.90;;;;;;5050324;28;20025;-76
2021/10/27 12:56:29;;;;;;;5.38;2.60;;;14.80;90.90;;;;;;5050468;28;20029;-75
2021/10/27 12:59:06;;;;;;;6.00;2.42;;;14.90;90.90;;;;;;5050151;28;20503;-76
2021/10/27 13:04:32;;;;;;;5.80;2.35;;;14.90;90.80;;;;;;5051502;28;20070;-76
2021/10/27 13:07:10;;;;;;;5.72;2.60;;;14.90;90.80;;;;;;5050417;28;20021;-76
2021/10/27 13:13:18;;;;;;;4.88;2.50;;;14.90;90.80;;;;;;5051441;28;20117;-75
2021/10/27 13:22:51;;;;;;;5.25;2.10;;;14.90;90.60;;;;;;5055250;28;20086;-75
2021/10/27 13:30:50;;;;;;;7.53;2.55;;;14.90;90.80;;;;;;5055036;28;20044;-76
2021/10/27 13:33:18;;;;;;;5.95;2.50;;;14.90;90.80;;;;;;5053758;28;20025;-75
2021/10/27 13:35:45;;;;;;;5.82;2.20;;;14.80;90.80;;;;;;5053757;28;20025;-76
2021/10/27 13:38:12;;;;;;;6.28;2.50;;;14.80;90.80;;;;;;5053897;28;20390;-75
2021/10/27 13:40:45;;;;;;;4.85;2.15;;;14.80;90.80;;;;;;5053339;28;20075;-76
2021/10/27 13:43:30;;;;;;;6.30;2.20;;;14.80;90.90;;;;;;5078357;22;20058;-77
2021/10/27 13:49:02;;;;;;;5.35;1.88;;;14.80;91.00;;;;;;5054816;28;20123;-79
2021/10/27 14:07:44;;;;;;;5.32;2.25;;;14.80;91.10;;;;;;5054769;28;20032;-79
2021/10/27 14:10:14;;;;;;;4.53;2.10;;;14.70;91.20;;;;;;5052987;28;20462;-79
2021/10/27 14:12:45;;;;;;;6.82;2.30;;;14.70;91.20;;;;;;5052986;28;20390;-78
2021/10/27 14:18:10;;;;;;;4.90;2.17;;;14.70;91.20;;;;;;5054344;28;20498;-78
2021/10/27 14:39:56;;;;;;;5.05;2.03;;;14.90;91.00;;;;;;5054664;28;20489;-78
2021/10/27 14:59:16;;;;;;;5.70;2.03;;;14.80;91.20;;;;;;5054481;28;20040;-77
2021/10/27 15:20:52;;;;;;;6.45;2.25;;;14.70;91.50;;;;;;5054133;28;20094;-77
2021/10/27 15:23:50;;;;;;;5.38;2.55;;;14.60;91.40;;;;;;5052451;28;20024;-77
2021/10/27 15:31:38;;;;;;;6.03;2.88;;;14.60;91.40;;;;;;5050700;28;20067;-79
2021/10/27 15:34:33;;;;;;;5.93;2.40;;;14.60;91.40;;;;;;5050241;28;20016;-78
2021/10/27 15:45:11;;;;;;;6.32;2.40;;;14.60;91.50;;;;;;5049988;28;20094;-77
2021/10/27 15:53:00;;;;;;;5.82;2.40;;;14.60;91.50;;;;;;5042843;28;20025;-78
2021/10/27 15:55:26;;;;;;;7.00;2.47;;;14.60;91.50;;;;;;5048381;28;20028;-80
2021/10/27 15:57:52;;;;;;;6.97;2.50;;;14.60;91.50;;;;;;5047964;28;20048;-80
2021/10/27 16:00:21;;;;;;;6.50;2.47;;;14.60;91.50;;;;;;5048248;28;20060;-79
2021/10/27 16:02:47;;;;;;;7.05;2.88;;;14.60;91.50;;;;;;5048972;28;20488;-80
2021/10/27 16:05:12;;;;;;;7.47;2.80;;;14.60;91.50;;;;;;5048920;28;20025;-77
2021/10/27 16:07:40;;;;;;;6.70;2.75;;;14.60;91.50;;;;;;5047749;28;20029;-79
2021/10/27 16:10:14;;;;;;;6.28;2.80;;;14.60;91.50;;;;;;5047862;28;20267;-77
2021/10/27 16:12:40;;;;;;;6.47;3.08;;;14.60;91.50;;;;;;5048078;28;20032;-77
2021/10/27 16:15:12;;;;;;;6.43;2.40;;;14.60;91.50;;;;;;5049620;28;20426;-79
2021/10/27 16:17:40;;;;;;;6.38;3.00;;;14.60;91.50;;;;;;5048288;28;20036;-79
2021/10/27 16:20:06;;;;;;;5.45;2.70;;;14.60;91.50;;;;;;5047773;28;20496;-81
2021/10/27 16:22:32;;;;;;;8.25;2.92;;;14.60;91.50;;;;;;5048090;28;20140;-81
2021/10/27 16:24:57;;;;;;;5.63;2.60;;;14.60;91.50;;;;;;5049043;28;20129;-80
2021/10/27 16:27:23;;;;;;;8.40;2.67;;;14.60;91.50;;;;;;5048208;28;20096;-80
2021/10/27 16:29:48;;;;;;;6.68;3.03;;;14.60;91.50;;;;;;5047446;28;20439;-79
2021/10/27 16:32:14;;;;;;;7.75;2.70;;;14.50;91.70;;;;;;5047734;28;20031;-80
2021/10/27 16:34:41;;;;;;;7.75;2.80;;;14.50;91.50;;;;;;5048025;28;20066;-80
2021/10/27 16:37:06;;;;;;;6.28;2.92;;;14.60;91.50;;;;;;5047599;28;20017;-79
2021/10/27 16:39:32;;;;;;;6.78;3.08;;;14.50;91.50;;;;;;5047448;28;20107;-79
2021/10/27 16:41:58;;;;;;;7.30;3.05;;;14.50;91.70;;;;;;5048958;28;20029;-81
2021/10/27 16:44:24;;;;;;;6.68;2.80;;;14.50;91.50;;;;;;5048309;28;20116;-81
2021/10/27 16:46:49;;;;;;;13.35;3.40;;;14.50;91.50;;;;;;5048033;28;20028;-81
2021/10/27 16:49:16;;;;;;;8.45;3.28;;;14.50;91.50;;;;;;5051310;28;20016;-82
2021/10/27 16:51:42;;;;;;;6.97;2.85;;;14.50;91.40;;;;;;5051881;28;20456;-79
2021/10/27 16:54:08;;;;;;;9.02;3.15;;;14.50;91.40;;;;;;5051714;28;20027;-83
2021/10/27 16:56:34;;;;;;;9.85;3.10;;;14.60;91.30;;;;;;5051747;28;20029;-81
2021/10/27 16:59:00;;;;;;;7.75;3.30;;;14.70;91.40;;;;;;5051706;28;20416;-81
2021/10/27 17:01:25;;;;;;;7.40;3.00;;;14.70;91.00;;;;;;5052754;28;20021;-81
2021/10/27 17:03:51;;;;;;;17.52;4.13;;;14.70;90.80;;;;;;5051790;28;20367;-83
2021/10/27 17:06:17;;;;;;;22.52;4.20;;;14.70;90.90;;;;;;5052747;28;20308;-79
2021/10/27 17:08:43;;;;;;;26.92;4.65;;;14.70;90.90;;;;;;5051493;28;20458;-82
2021/10/27 17:11:09;;;;;;;23.67;4.13;;;14.70;91.00;;;;;;5050771;28;20036;-83
2021/10/27 17:13:35;;;;;;;15.43;3.67;;;14.70;91.00;;;;;;5052083;28;20029;-84
2021/10/27 17:16:01;;;;;;;13.10;3.83;;;14.70;91.10;;;;;;5051663;28;20025;-84